»·PEaware :: N204LE KPDX-KSLE

N204LE :: KPDX-KSLE

FLIGHT INFORMATION

Flight Status: Arrived
Operator: Privately registered:
United States
More flights under this callsign
Pilot: Bill F. (18685)
Aircraft: BEECH AIRCRAFT DEBONAIR BONANZA
(BE33)
More flights by this aircraft type
Origin: KPDX Portland Intl
United States
Destination: KSLE McNary
United States
More flights between these airports :: More routes between these airports
Route: +
File this flight plan on PilotEdge
Remarks: FF CW
Altitude:
(Current/Filed)
0ft
Speed:
(Current/Filed)
0kts
Departed: 19-May-20 04:09 PM
Arrived: 19-May-20 04:45 PM
Distance/Time
Traveled:
45nm/0:36
Distance/Time
To Go:
Arrived

Flight Plot

Page will automatically refresh every two minutes.

Flight plan parsing failed; only flown route is shown


Map Options




Map Legend


Flown Route
Filed Route
Departure Airport
Arrival Airport
Navaid (VOR, NDB)
Fix

Horizontal Profiles

Position Reports

Time Latitude Longitude Heading Altitude Ground
Speed
19-May-20 16:00 45.588234 -122.585243 208 32ft 0kts
19-May-20 16:01 45.588234 -122.585243 208 32ft 0kts
19-May-20 16:02 45.588244 -122.584752 14 32ft 5kts
19-May-20 16:03 45.589485 -122.586649 26 32ft 5kts
19-May-20 16:04 45.591586 -122.590584 299 32ft 13kts
19-May-20 16:05 45.593792 -122.595968 328 32ft 11kts
19-May-20 16:06 45.593956 -122.596019 4 32ft 0kts
19-May-20 16:06 45.593956 -122.596019 4 32ft 0kts
19-May-20 16:08 45.593956 -122.596019 4 32ft 0kts
19-May-20 16:09 45.588439 -122.578728 109 328ft 98kts
19-May-20 16:09 45.583943 -122.546109 101 1139ft 103kts
19-May-20 16:10 45.579270 -122.504787 95 2018ft 112kts
19-May-20 16:12 45.571722 -122.451472 133 2776ft 138kts
19-May-20 16:12 45.538245 -122.446157 194 2872ft 157kts
19-May-20 16:13 45.496371 -122.464872 203 3198ft 156kts
19-May-20 16:14 45.451940 -122.489582 203 3053ft 174kts
19-May-20 16:15 45.407798 -122.514204 203 3051ft 166kts
19-May-20 16:16 45.364650 -122.538140 203 3052ft 164kts
19-May-20 16:17 45.321728 -122.561904 203 3052ft 164kts
19-May-20 16:18 45.279139 -122.586014 205 3052ft 163kts
19-May-20 16:19 45.237132 -122.611604 205 3052ft 163kts
19-May-20 16:20 45.195070 -122.637196 205 3052ft 163kts
19-May-20 16:21 45.163136 -122.621063 60 3013ft 167kts
19-May-20 16:22 45.199557 -122.584155 31 1575ft 140kts
19-May-20 16:23 45.197454 -122.578893 325 1010ft 85kts
19-May-20 16:24 45.218200 -122.591121 338 245ft 81kts
19-May-20 16:25 45.209106 -122.605915 194 1159ft 118kts
19-May-20 16:26 45.180754 -122.627761 254 2012ft 129kts
19-May-20 16:27 45.176855 -122.681679 273 2498ft 139kts
19-May-20 16:28 45.187489 -122.738727 282 2348ft 170kts
19-May-20 16:29 45.208307 -122.778575 10 1602ft 149kts
19-May-20 16:30 45.235426 -122.772059 0 439ft 74kts
19-May-20 16:31 45.256578 -122.768260 3 599ft 85kts
19-May-20 16:32 45.243058 -122.749973 189 1377ft 128kts
19-May-20 16:33 45.211012 -122.768686 222 2166ft 135kts
19-May-20 16:34 45.179233 -122.800208 220 2733ft 143kts
19-May-20 16:35 45.146884 -122.836699 220 3060ft 153kts
19-May-20 16:36 45.112957 -122.875481 225 3120ft 165kts
19-May-20 16:37 45.069687 -122.909858 210 2588ft 182kts
19-May-20 16:38 45.023898 -122.936520 202 2455ft 166kts
19-May-20 16:39 44.980883 -122.954718 201 2547ft 159kts
19-May-20 16:40 44.940326 -122.977615 206 2457ft 152kts
19-May-20 16:41 44.905772 -122.971925 135 1902ft 114kts
19-May-20 16:42 44.888827 -122.982313 297 1212ft 91kts
19-May-20 16:43 44.907481 -122.999655 327 209ft 57kts
19-May-20 16:44 44.912592 -123.002005 150 202ft 9kts
19-May-20 16:45 44.908817 -122.998982 150 207ft 15kts
19-May-20 16:46 44.905833 -122.996789 207 212ft 3kts
19-May-20 16:47 44.907579 -122.995878 146 213ft 0kts
19-May-20 16:58 44.902442 -123.004447 136 213ft 0kts
19-May-20 16:59 44.902442 -123.004447 136 213ft 0kts

Navigation Log

Ident Type
Flight plan parsing failed, navigation log unavailable